Impacts TAF Board
For situational awareness. Not to be used for flight planning purposes.
IDs:

KSRQ - Sarasota-Bradenton I, FL, US

Issued at 2324 UTC 30 Jun 2022
Updated at 2342 UTC 30 Jun 2022
Potential Impact None Slight Moderate High
Time2253Z 01/00Z 01/01Z 01/02Z 01/03Z 01/04Z 01/05Z 01/06Z 01/07Z 01/08Z 01/09Z 01/10Z 01/11Z 01/12Z>>
Type OBS PRVL PRVL PRVL PRVL PRVL PRVL PRVL PRVL PRVL PRVL PRVL PRVL PRVL
VIS 10 >6 >6 >6 >6 >6 >6 >6 >6 >6 >6 >6 >6 >6
CIG 110 250 250 150 150 150 150 150 150 150 150 150 150 150
Cover BKN BKN BKN BKN BKN BKN BKN BKN BKN BKN BKN BKN BKN BKN
FltCat VFR VFR VFR VFR VFR VFR VFR VFR VFR VFR VFR VFR VFR VFR
WX -- VCTS VCTS -- -- -- -- -- -- -- -- -- -- --
WDir 360 310 310 VRB VRB VRB VRB VRB VRB VRB VRB VRB VRB VRB
WSpd 6 10 10 4 4 4 4 4 4 4 4 4 4 4
WGst -- -- -- -- -- -- -- -- -- -- -- -- -- --
WSHgt -- -- -- -- -- -- -- -- -- -- -- -- -- --
WSDir -- -- -- -- -- -- -- -- -- -- -- -- -- --
WSSpd -- -- -- -- -- -- -- -- -- -- -- -- -- --
Raw TAF
KSRQ 302324Z 0100/0124 31010KT P6SM VCTS SCT025CB BKN250
  FM010200 VRB04KT P6SM SCT025 BKN150
  FM011600 19006KT P6SM FEW030 SCT250
  FM012000 25008KT P6SM VCTS SCT030CB SCT250


Raw METAR
KSRQ 302253Z 36006KT 10SM SCT090 BKN110 31/23 A3004 RMK AO2 LTG DSNT N SLP172 T03110233
KSRQ 302153Z 26006KT 10SM OVC100 31/23 A3004 RMK AO2 LTG DSNT N SLP171 T03060233
KSRQ 302053Z 15006KT 10SM SCT042 30/22 A3006 RMK AO2 LTG DSNT N-SE SLP178 T03000222 55001
KSRQ 302042Z 26009G17KT 10SM CLR 32/23 A3005 RMK AO2 LTG DSNT N-SE T03220233

METAR Board
Radar Display
Forecast Discussion
For situational awareness. Not to be used for flight planning purposes.